createdAt,value
2022-10-12T00:01:38.639Z,100.00
2022-10-12T00:04:05.420Z,100.00
2022-10-12T00:06:32.209Z,100.00
2022-10-12T00:08:59.066Z,100.00
2022-10-12T00:11:28.317Z,100.00
2022-10-12T00:13:55.704Z,100.00
2022-10-12T00:16:23.456Z,100.00
2022-10-12T00:18:54.848Z,100.00
2022-10-12T00:21:43.346Z,100.00
2022-10-12T00:24:23.950Z,100.00
2022-10-12T00:26:50.971Z,100.00
2022-10-12T00:29:17.754Z,100.00
2022-10-12T00:31:44.599Z,100.00
2022-10-12T00:34:11.312Z,100.00
2022-10-12T00:36:38.292Z,100.00
2022-10-12T00:39:06.004Z,100.00
2022-10-12T00:41:34.601Z,100.00
2022-10-12T00:44:39.423Z,100.00
2022-10-12T00:47:51.395Z,100.00
2022-10-12T00:50:34.119Z,100.00
2022-10-12T00:53:21.370Z,100.00
2022-10-12T00:56:03.323Z,100.00
2022-10-12T00:58:31.671Z,100.00
2022-10-12T01:01:02.981Z,100.00
2022-10-12T01:03:29.883Z,100.00
2022-10-12T01:05:57.021Z,100.00
2022-10-12T01:08:24.059Z,100.00
2022-10-12T01:10:50.813Z,100.00
2022-10-12T01:13:18.386Z,100.00
2022-10-12T01:16:05.427Z,100.00
2022-10-12T01:18:36.314Z,100.00
2022-10-12T01:21:33.427Z,100.00
2022-10-12T01:24:24.274Z,100.00
2022-10-12T01:26:57.531Z,100.00
2022-10-12T01:29:30.347Z,100.00
2022-10-12T01:32:06.931Z,100.00
2022-10-12T01:34:40.209Z,100.00
2022-10-12T01:37:31.826Z,100.00
2022-10-12T01:40:00.699Z,100.00
2022-10-12T01:42:30.407Z,100.00
2022-10-12T01:45:20.418Z,100.00
2022-10-12T01:48:21.444Z,100.00
2022-10-12T01:51:02.620Z,100.00
2022-10-12T01:53:55.443Z,100.00
2022-10-12T01:56:59.251Z,100.00
2022-10-12T01:59:34.176Z,100.00
2022-10-12T02:02:14.584Z,100.00
2022-10-12T02:04:54.084Z,100.00
2022-10-12T02:07:27.251Z,100.00
2022-10-12T02:09:55.995Z,100.00
2022-10-12T02:12:24.246Z,100.00
2022-10-12T02:14:54.232Z,100.00
2022-10-12T02:17:22.546Z,100.00
2022-10-12T02:20:10.446Z,100.00
2022-10-12T02:23:11.480Z,100.00
2022-10-12T02:25:38.984Z,100.00
2022-10-12T02:28:07.973Z,100.00
2022-10-12T02:30:37.519Z,100.00
2022-10-12T02:33:15.274Z,100.00
2022-10-12T02:35:45.788Z,100.00
2022-10-12T02:38:15.531Z,100.00
2022-10-12T02:40:54.410Z,100.00
2022-10-12T02:43:29.358Z,100.00
2022-10-12T02:46:18.463Z,100.00
2022-10-12T02:49:20.464Z,100.00
2022-10-12T02:52:02.369Z,100.00
2022-10-12T02:54:42.463Z,100.00
2022-10-12T02:57:43.441Z,100.00
2022-10-12T03:00:24.058Z,100.00
2022-10-12T03:02:50.926Z,100.00
2022-10-12T03:05:17.741Z,100.00
2022-10-12T03:07:44.491Z,100.00
2022-10-12T03:10:11.835Z,100.00
2022-10-12T03:12:38.604Z,100.00
2022-10-12T03:15:05.712Z,100.00
2022-10-12T03:17:32.512Z,100.00
2022-10-12T03:20:19.491Z,100.00
2022-10-12T03:22:59.993Z,100.00
2022-10-12T03:25:26.826Z,100.00
2022-10-12T03:28:14.550Z,100.00
2022-10-12T03:30:55.107Z,100.00
2022-10-12T03:33:22.169Z,100.00
2022-10-12T03:35:49.140Z,100.00
2022-10-12T03:38:16.526Z,100.00
2022-10-12T03:40:43.766Z,100.00
2022-10-12T03:43:10.763Z,100.00
2022-10-12T03:45:57.520Z,100.00
2022-10-12T03:48:58.488Z,100.00
2022-10-12T03:51:39.002Z,100.00
2022-10-12T03:54:05.892Z,100.00
2022-10-12T03:56:32.736Z,100.00
2022-10-12T03:58:59.622Z,100.00
2022-10-12T04:01:26.436Z,100.00
2022-10-12T04:03:53.438Z,100.00
2022-10-12T04:06:20.218Z,100.00
2022-10-12T04:08:50.595Z,100.00
2022-10-12T04:11:18.178Z,100.00
2022-10-12T04:13:44.923Z,100.00
2022-10-12T04:16:11.712Z,100.00
2022-10-12T04:18:38.502Z,100.00
2022-10-12T04:21:29.531Z,100.00
2022-10-12T04:24:31.562Z,100.00
2022-10-12T04:27:32.528Z,100.00
2022-10-12T04:30:33.542Z,100.00
2022-10-12T04:33:26.300Z,100.00
2022-10-12T04:35:53.220Z,100.00
2022-10-12T04:38:20.153Z,100.00
2022-10-12T04:40:48.160Z,100.00
2022-10-12T04:43:15.622Z,100.00
2022-10-12T04:46:12.564Z,100.00
2022-10-12T04:49:13.616Z,100.00
2022-10-12T04:51:53.955Z,100.00
2022-10-12T04:54:20.706Z,100.00
2022-10-12T04:56:48.262Z,100.00
2022-10-12T04:59:15.368Z,100.00
2022-10-12T05:01:42.359Z,100.00
2022-10-12T05:04:15.524Z,100.00
2022-10-12T05:06:42.749Z,100.00
2022-10-12T05:11:57.093Z,100.00
2022-10-12T05:14:23.969Z,100.00
2022-10-12T05:16:50.921Z,100.00
2022-10-12T05:19:38.647Z,100.00
2022-10-12T05:22:30.018Z,100.00
2022-10-12T05:24:57.019Z,100.00
2022-10-12T05:27:44.589Z,100.00
2022-10-12T05:30:45.566Z,100.00
2022-10-12T05:33:46.550Z,100.00
2022-10-12T05:36:27.123Z,100.00
2022-10-12T05:38:53.953Z,100.00
2022-10-12T05:41:40.583Z,100.00
2022-10-12T05:44:41.925Z,100.00
2022-10-12T05:47:37.579Z,100.00
2022-10-12T05:50:04.902Z,100.00
2022-10-12T05:52:32.194Z,100.00
2022-10-12T05:55:19.578Z,100.00
2022-10-12T05:58:01.444Z,100.00
2022-10-12T06:00:28.614Z,100.00
2022-10-12T06:02:56.422Z,100.00
2022-10-12T06:05:23.242Z,100.00
2022-10-12T06:07:50.063Z,100.00
2022-10-12T06:10:16.871Z,100.00
2022-10-12T06:12:43.712Z,100.00
2022-10-12T06:15:10.704Z,100.00
2022-10-12T06:17:37.508Z,100.00
2022-10-12T06:20:24.621Z,100.00
2022-10-12T06:23:05.173Z,100.00
2022-10-12T06:25:31.998Z,100.00
2022-10-12T06:28:18.625Z,100.00
2022-10-12T06:31:19.650Z,100.00
2022-10-12T06:34:00.113Z,100.00
2022-10-12T06:36:27.171Z,100.00
2022-10-12T06:38:54.072Z,100.00
2022-10-12T06:41:41.610Z,100.00
2022-10-12T06:44:42.619Z,100.00
2022-10-12T06:47:39.172Z,100.00
2022-10-12T06:50:06.666Z,100.00
2022-10-12T06:52:53.601Z,100.00
2022-10-12T06:55:39.413Z,100.00
2022-10-12T06:58:06.226Z,100.00
2022-10-12T07:00:33.026Z,100.00
2022-10-12T07:02:59.883Z,100.00
2022-10-12T07:05:27.262Z,100.00
2022-10-12T07:08:14.624Z,100.00
2022-10-12T07:11:00.085Z,100.00
2022-10-12T07:13:26.881Z,100.00
2022-10-12T07:15:54.396Z,100.00
2022-10-12T07:18:21.708Z,100.00
2022-10-12T07:20:52.808Z,100.00
2022-10-12T07:23:19.765Z,100.00
2022-10-12T07:25:54.370Z,100.00
2022-10-12T07:28:21.949Z,100.00
2022-10-12T07:31:08.890Z,100.00
2022-10-12T07:34:09.707Z,100.00
2022-10-12T07:36:59.481Z,100.00
2022-10-12T07:39:27.100Z,100.00
2022-10-12T07:42:24.611Z,100.00
2022-10-12T07:45:25.708Z,100.00
2022-10-12T07:48:06.245Z,100.00
2022-10-12T07:50:33.247Z,100.00
2022-10-12T07:53:20.666Z,100.00
2022-10-12T07:56:22.698Z,100.00
2022-10-12T07:59:03.283Z,100.00
2022-10-12T08:01:31.012Z,100.00
2022-10-12T08:04:01.519Z,100.00
2022-10-12T08:06:50.660Z,100.00
2022-10-12T08:09:31.078Z,100.00
2022-10-12T08:11:57.838Z,100.00
2022-10-12T08:14:24.748Z,100.00
2022-10-12T08:16:51.547Z,100.00
2022-10-12T08:19:18.499Z,100.00
2022-10-12T08:22:05.646Z,100.00
2022-10-12T08:24:46.157Z,100.00
2022-10-12T08:27:13.266Z,100.00
2022-10-12T08:29:40.094Z,100.00
2022-10-12T08:32:07.176Z,100.00
2022-10-12T08:34:34.037Z,100.00
2022-10-12T08:37:20.696Z,100.00
2022-10-12T08:40:23.753Z,100.00
2022-10-12T08:43:15.904Z,100.00
2022-10-12T08:46:06.702Z,100.00
2022-10-12T08:48:50.049Z,100.00
2022-10-12T08:51:20.117Z,100.00
2022-10-12T08:54:02.660Z,100.00
2022-10-12T08:56:43.931Z,100.00
2022-10-12T08:59:17.614Z,100.00
2022-10-12T09:02:02.954Z,100.00
2022-10-12T09:05:12.676Z,100.00
2022-10-12T09:07:57.093Z,100.00
2022-10-12T09:10:26.932Z,100.00
2022-10-12T09:13:29.273Z,94.22
2022-10-12T09:16:02.368Z,94.47
2022-10-12T09:18:39.655Z,90.56
2022-10-12T09:21:31.700Z,97.71
2022-10-12T09:24:29.059Z,94.68
2022-10-12T09:26:59.306Z,91.50
2022-10-12T09:29:31.271Z,87.84
2022-10-12T09:32:15.925Z,88.78
2022-10-12T09:34:45.185Z,98.20
2022-10-12T09:37:36.723Z,94.18
2022-10-12T09:40:20.386Z,97.68
2022-10-12T09:42:47.483Z,90.59
2022-10-12T09:45:34.708Z,87.24
2022-10-12T09:48:35.738Z,85.34
2022-10-12T09:51:16.916Z,82.95
2022-10-12T09:53:48.066Z,81.49
2022-10-12T09:56:27.684Z,81.68
2022-10-12T09:58:56.224Z,83.68
2022-10-12T10:01:27.570Z,83.65
2022-10-12T10:04:20.711Z,79.63
2022-10-12T10:07:31.814Z,79.86
2022-10-12T10:10:22.715Z,79.22
2022-10-12T10:12:53.776Z,84.45
2022-10-12T10:15:27.608Z,83.81
2022-10-12T10:18:02.302Z,79.04
2022-10-12T10:20:57.776Z,89.57
2022-10-12T10:23:43.387Z,79.57
2022-10-12T10:26:10.207Z,77.30
2022-10-12T10:28:38.433Z,78.15
2022-10-12T10:31:16.171Z,79.08
2022-10-12T10:33:44.059Z,84.74
2022-10-12T10:36:34.798Z,82.84
2022-10-12T10:39:38.448Z,87.97
2022-10-12T10:42:32.717Z,85.68
2022-10-12T10:45:20.751Z,85.50
2022-10-12T10:48:07.869Z,90.49
2022-10-12T10:50:37.615Z,86.58
2022-10-12T10:53:06.733Z,79.92
2022-10-12T10:55:52.543Z,78.32
2022-10-12T10:58:27.708Z,82.30
2022-10-12T11:00:56.800Z,79.72
2022-10-12T11:03:27.805Z,80.93
2022-10-12T11:05:57.001Z,81.88
2022-10-12T11:08:26.315Z,78.35
2022-10-12T11:10:53.155Z,78.69
2022-10-12T11:13:20.060Z,80.33
2022-10-12T11:15:50.326Z,82.44
2022-10-12T11:18:40.772Z,81.19
2022-10-12T11:21:48.784Z,80.62
2022-10-12T11:24:40.542Z,79.38
2022-10-12T11:27:48.108Z,78.52
2022-10-12T11:30:53.788Z,77.96
2022-10-12T11:33:38.931Z,76.72
2022-10-12T11:36:07.972Z,77.71
2022-10-12T11:38:37.878Z,72.02
2022-10-12T11:44:18.797Z,73.61
2022-10-12T11:47:02.543Z,77.45
2022-10-12T11:49:31.755Z,73.70
2022-10-12T11:52:28.719Z,71.48
2022-10-12T11:55:12.317Z,70.76
2022-10-12T11:57:39.244Z,66.82
2022-10-12T12:00:16.312Z,68.44
2022-10-12T12:02:46.579Z,66.34
2022-10-12T12:05:33.845Z,64.92
2022-10-12T12:08:21.561Z,66.97
2022-10-12T12:10:53.303Z,68.35
2022-10-12T12:13:23.074Z,69.44
2022-10-12T12:16:09.808Z,67.07
2022-10-12T12:19:09.144Z,69.12
2022-10-12T12:22:15.891Z,70.41
2022-10-12T12:25:24.816Z,68.94
2022-10-12T12:28:01.066Z,69.80
2022-10-12T12:30:30.333Z,69.07
2022-10-12T12:33:00.211Z,68.88
2022-10-12T12:35:51.814Z,69.39
2022-10-12T12:38:36.526Z,65.51
2022-10-12T12:41:06.340Z,67.78
2022-10-12T12:44:02.906Z,68.04
2022-10-12T12:47:32.632Z,69.67
2022-10-12T12:50:43.232Z,67.75
2022-10-12T12:53:44.001Z,66.46
2022-10-12T12:56:58.894Z,70.21
2022-10-12T12:59:58.355Z,70.08
2022-10-12T13:02:52.454Z,68.02
2022-10-12T13:06:02.663Z,69.53
2022-10-12T13:08:29.413Z,71.69
2022-10-12T13:11:15.238Z,72.04
2022-10-12T13:13:51.373Z,72.29
2022-10-12T13:20:33.845Z,68.00
2022-10-12T13:23:36.864Z,69.13
2022-10-12T13:26:25.571Z,71.22
2022-10-12T13:28:52.780Z,71.01
2022-10-12T13:31:31.818Z,67.87
2022-10-12T13:34:33.864Z,67.93
2022-10-12T13:37:35.085Z,69.10
2022-10-12T13:40:28.479Z,67.46
2022-10-12T13:43:39.918Z,68.36
2022-10-12T13:46:49.841Z,65.94
2022-10-12T13:49:56.879Z,67.19
2022-10-12T13:53:04.847Z,66.75
2022-10-12T13:56:10.866Z,67.46
2022-10-12T13:58:57.750Z,66.91
2022-10-12T14:01:44.858Z,65.76
2022-10-12T14:04:46.889Z,65.47
2022-10-12T14:07:28.826Z,66.68
2022-10-12T14:09:57.714Z,69.97
2022-10-12T14:12:25.724Z,66.51
2022-10-12T14:14:53.459Z,64.14
2022-10-12T14:17:40.986Z,63.74
2022-10-12T14:20:44.931Z,64.68
2022-10-12T14:23:25.315Z,64.05
2022-10-12T14:25:54.348Z,67.66
2022-10-12T14:28:29.268Z,67.48
2022-10-12T14:31:15.934Z,68.01
2022-10-12T14:34:34.870Z,69.77
2022-10-12T14:37:36.910Z,69.58
2022-10-12T14:40:30.371Z,75.06
2022-10-12T14:43:03.868Z,71.47
2022-10-12T14:45:51.976Z,71.48
2022-10-12T14:48:32.448Z,70.86
2022-10-12T14:50:59.314Z,70.71
2022-10-12T14:53:29.573Z,72.42
2022-10-12T14:55:56.396Z,71.76
2022-10-12T14:58:23.418Z,71.99
2022-10-12T15:00:50.333Z,67.78
2022-10-12T15:03:18.083Z,70.33
2022-10-12T15:05:44.993Z,73.22
2022-10-12T15:08:11.723Z,74.38
2022-10-12T15:10:38.952Z,70.42
2022-10-12T15:13:05.801Z,70.21
2022-10-12T15:15:54.931Z,68.78
2022-10-12T15:18:35.491Z,67.01
2022-10-12T15:21:22.956Z,67.25
2022-10-12T15:24:03.534Z,68.18
2022-10-12T15:26:30.535Z,68.62
2022-10-12T15:28:58.479Z,69.14
2022-10-12T15:31:25.341Z,69.47
2022-10-12T15:34:11.979Z,69.10
2022-10-12T15:37:13.176Z,69.47
2022-10-12T15:39:53.640Z,69.66
2022-10-12T15:42:20.518Z,69.15
2022-10-12T15:45:08.002Z,70.02
2022-10-12T15:48:08.986Z,71.33
2022-10-12T15:51:09.951Z,71.98
2022-10-12T15:53:52.493Z,73.29
2022-10-12T15:56:20.384Z,72.18
2022-10-12T15:58:47.727Z,71.85
2022-10-12T16:01:15.585Z,73.24
2022-10-12T16:03:42.891Z,73.98
2022-10-12T16:06:09.821Z,73.95
2022-10-12T16:08:36.653Z,74.99
2022-10-12T16:11:04.474Z,76.89
2022-10-12T16:13:31.475Z,78.69
2022-10-12T16:15:58.351Z,79.49
2022-10-12T16:18:25.296Z,79.83
2022-10-12T16:20:54.025Z,80.21
2022-10-12T16:23:23.533Z,80.45
2022-10-12T16:26:11.047Z,81.00
2022-10-12T16:28:51.514Z,82.00
2022-10-12T16:31:18.779Z,82.25
2022-10-12T16:34:06.024Z,84.58
2022-10-12T16:37:07.089Z,85.99
2022-10-12T16:40:07.997Z,86.71
2022-10-12T16:42:59.429Z,86.98
2022-10-12T16:45:46.004Z,87.54
2022-10-12T16:48:26.708Z,87.39
2022-10-12T16:50:53.556Z,87.55
2022-10-12T16:53:20.445Z,86.65
2022-10-12T16:55:47.407Z,87.67
2022-10-12T16:58:14.211Z,87.68
2022-10-12T17:00:42.367Z,88.38
2022-10-12T17:03:09.321Z,88.01
2022-10-12T17:05:36.081Z,88.93
2022-10-12T17:08:02.895Z,91.36
2022-10-12T17:10:29.884Z,92.62
2022-10-12T17:12:56.686Z,95.28
2022-10-12T17:15:23.511Z,95.09
2022-10-12T17:17:50.371Z,98.03
2022-10-12T17:20:37.031Z,100.00
2022-10-12T17:23:17.579Z,99.90
2022-10-12T17:25:44.371Z,100.00
2022-10-12T17:28:31.079Z,100.00
2022-10-12T17:31:11.946Z,100.00
2022-10-12T17:33:38.940Z,100.00
2022-10-12T17:36:09.814Z,100.00
2022-10-12T17:38:44.026Z,100.00
2022-10-12T17:41:31.058Z,100.00
2022-10-12T17:44:32.044Z,100.00
2022-10-12T17:47:33.076Z,100.00
2022-10-12T17:50:34.139Z,100.00
2022-10-12T17:53:14.732Z,100.00
2022-10-12T17:55:48.606Z,100.00
2022-10-12T17:58:15.856Z,100.00
2022-10-12T18:00:42.752Z,100.00
2022-10-12T18:03:11.513Z,100.00
2022-10-12T18:05:38.405Z,100.00
2022-10-12T18:08:05.389Z,100.00
2022-10-12T18:10:34.480Z,100.00
2022-10-12T18:13:09.176Z,100.00
2022-10-12T18:15:48.127Z,100.00
2022-10-12T18:18:15.648Z,100.00
2022-10-12T18:20:42.586Z,100.00
2022-10-12T18:23:09.515Z,100.00
2022-10-12T18:25:58.053Z,100.00
2022-10-12T18:29:00.071Z,100.00
2022-10-12T18:32:01.056Z,100.00
2022-10-12T18:35:02.046Z,100.00
2022-10-12T18:37:42.563Z,100.00
2022-10-12T18:40:10.846Z,100.00
2022-10-12T18:42:58.076Z,100.00
2022-10-12T18:46:01.113Z,100.00
2022-10-12T18:52:24.927Z,100.00
2022-10-12T18:54:51.829Z,100.00
2022-10-12T18:57:19.044Z,100.00
2022-10-12T18:59:45.921Z,100.00
2022-10-12T19:02:13.184Z,100.00
2022-10-12T19:04:40.569Z,100.00
2022-10-12T19:07:07.694Z,100.00
2022-10-12T19:09:34.542Z,100.00
2022-10-12T19:12:01.634Z,100.00
2022-10-12T19:14:28.613Z,100.00
2022-10-12T19:16:56.134Z,100.00
2022-10-12T19:19:25.257Z,100.00
2022-10-12T19:22:12.297Z,100.00
2022-10-12T19:25:13.520Z,100.00
2022-10-12T19:28:14.174Z,100.00
2022-10-12T19:31:03.874Z,100.00
2022-10-12T19:33:30.966Z,100.00
2022-10-12T19:35:57.900Z,100.00
2022-10-12T19:38:24.949Z,100.00
2022-10-12T19:40:52.078Z,100.00
2022-10-12T19:43:39.114Z,100.00
2022-10-12T19:46:40.112Z,100.00
2022-10-12T19:49:45.179Z,100.00
2022-10-12T19:52:25.986Z,100.00
2022-10-12T19:54:54.435Z,100.00
2022-10-12T19:57:21.464Z,100.00
2022-10-12T19:59:48.389Z,100.00
2022-10-12T20:02:15.410Z,100.00
2022-10-12T20:04:43.467Z,100.00
2022-10-12T20:07:31.121Z,100.00
2022-10-12T20:10:32.146Z,100.00
2022-10-12T20:13:33.089Z,100.00
2022-10-12T20:16:10.592Z,100.00
2022-10-12T20:18:37.549Z,100.00
2022-10-12T20:21:26.240Z,100.00
2022-10-12T20:24:27.217Z,100.00
2022-10-12T20:27:07.699Z,100.00
2022-10-12T20:29:55.194Z,100.00
2022-10-12T20:32:35.704Z,100.00
2022-10-12T20:35:02.702Z,100.00
2022-10-12T20:37:32.471Z,100.00
2022-10-12T20:39:59.411Z,100.00
2022-10-12T20:42:46.262Z,100.00
2022-10-12T20:45:48.155Z,100.00
2022-10-12T20:48:49.181Z,100.00
2022-10-12T20:51:32.043Z,100.00
2022-10-12T20:54:21.155Z,100.00
2022-10-12T20:57:04.026Z,100.00
2022-10-12T20:59:31.164Z,100.00
2022-10-12T21:01:58.170Z,100.00
2022-10-12T21:04:26.288Z,100.00
2022-10-12T21:06:53.386Z,100.00
2022-10-12T21:09:20.415Z,100.00
2022-10-12T21:11:47.386Z,100.00
2022-10-12T21:14:14.316Z,100.00
2022-10-12T21:16:41.216Z,100.00
2022-10-12T21:19:08.456Z,100.00
2022-10-12T21:21:35.260Z,100.00
2022-10-12T21:24:02.160Z,100.00
2022-10-12T21:26:30.076Z,100.00
2022-10-12T21:28:58.007Z,100.00
2022-10-12T21:31:45.178Z,100.00
2022-10-12T21:34:25.677Z,100.00
2022-10-12T21:36:52.861Z,100.00
2022-10-12T21:39:20.917Z,100.00
2022-10-12T21:41:48.010Z,100.00
2022-10-12T21:44:35.166Z,100.00
2022-10-12T21:47:36.179Z,100.00
2022-10-12T21:50:16.724Z,100.00
2022-10-12T21:52:45.530Z,100.00
2022-10-12T21:55:15.332Z,100.00
2022-10-12T21:57:42.223Z,100.00
2022-10-12T22:00:09.718Z,100.00
2022-10-12T22:02:44.531Z,100.00
2022-10-12T22:05:11.373Z,100.00
2022-10-12T22:07:40.739Z,100.00
2022-10-12T22:10:28.189Z,100.00
2022-10-12T22:13:08.786Z,100.00
2022-10-12T22:15:35.921Z,100.00
2022-10-12T22:18:11.712Z,100.00
2022-10-12T22:20:59.439Z,100.00
2022-10-12T22:23:39.703Z,100.00
2022-10-12T22:26:11.440Z,100.00
2022-10-12T22:28:42.804Z,100.00
2022-10-12T22:31:10.768Z,100.00
2022-10-12T22:33:37.626Z,100.00
2022-10-12T22:36:05.636Z,100.00
2022-10-12T22:38:32.995Z,100.00
2022-10-12T22:41:11.073Z,100.00
2022-10-12T22:44:02.232Z,100.00
2022-10-12T22:47:03.244Z,100.00
2022-10-12T22:50:04.203Z,100.00
2022-10-12T22:52:44.759Z,100.00
2022-10-12T22:55:11.516Z,100.00
2022-10-12T22:57:38.423Z,100.00
2022-10-12T23:00:05.628Z,100.00
2022-10-12T23:02:32.691Z,100.00
2022-10-12T23:04:59.591Z,100.00
2022-10-12T23:07:26.626Z,100.00
2022-10-12T23:09:53.433Z,100.00
2022-10-12T23:12:20.753Z,100.00
2022-10-12T23:14:49.321Z,100.00
2022-10-12T23:17:16.141Z,100.00
2022-10-12T23:20:03.246Z,100.00
2022-10-12T23:22:43.886Z,100.00
2022-10-12T23:25:10.655Z,100.00
2022-10-12T23:27:37.583Z,100.00
2022-10-12T23:30:04.684Z,100.00
2022-10-12T23:32:31.541Z,100.00
2022-10-12T23:34:58.337Z,100.00
2022-10-12T23:37:25.208Z,100.00
2022-10-12T23:39:52.008Z,100.00
2022-10-12T23:42:19.209Z,100.00
2022-10-12T23:45:06.267Z,100.00
2022-10-12T23:48:07.246Z,100.00
2022-10-12T23:51:08.230Z,100.00
2022-10-12T23:53:48.733Z,100.00
2022-10-12T23:56:15.620Z,100.00
2022-10-12T23:58:42.378Z,100.00
